This is the latest recevied weather packets stored in our database for station/object KA1AL. If no packets are shown the sender has not sent any weather packets the latest 10 day(s).
| Time | Temp. | Humidity | Pressure | Rain* | Wind** | Luminosity | Snow |
|---|---|---|---|---|---|---|---|
| 1777889326 | 2.22° C | 77% | 1005.8 hPa | 0 mm | - | 24 W/m² | - |
| 1777889023 | 2.22° C | 77% | 1005.6 hPa | 0 mm | - | 22 W/m² | - |
| 1777888721 | 2.22° C | 78% | 1005.4 hPa | 0 mm | - | 19 W/m² | - |
| 1777888416 | 1.67° C | 78% | 1005.3 hPa | 0 mm | - | 16 W/m² | - |
| 1777888113 | 1.67° C | 78% | 1005.4 hPa | 0 mm | - | 13 W/m² | - |
| 1777887811 | 1.67° C | 78% | 1005.3 hPa | 0 mm | - | 11 W/m² | - |
| 1777887507 | 1.11° C | 80% | 1005.1 hPa | 0 mm | - | 8 W/m² | - |
| 1777887203 | 1.67° C | 80% | 1005.2 hPa | 0 mm | - | 5 W/m² | - |
| 1777886899 | 1.67° C | 78% | 1005.1 hPa | 0 mm | - | 3 W/m² | - |
| 1777886595 | 1.67° C | 78% | 1005.3 hPa | 0 mm | - | 1 W/m² | - |
| 1777886292 | 1.67° C | 78% | 1005.3 hPa | 0 mm | - | 0 W/m² | - |
| 1777885990 | 0.56° C | 81% | 1005.5 hPa | 0 mm | - | 0 W/m² | - |
| 1777885689 | 0.56° C | 81% | 1005.3 hPa | 0 mm | - | 0 W/m² | - |
| 1777885387 | 1.11° C | 81% | 1005.2 hPa | 0 mm | - | 0 W/m² | - |
| 1777885086 | 1.11° C | 81% | 1005.1 hPa | 0 mm | - | 0 W/m² | - |
| 1777884781 | 1.11° C | 81% | 1005.1 hPa | 0 mm | - | 0 W/m² | - |
| 1777884477 | 1.11° C | 81% | 1005 hPa | 0 mm | - | 0 W/m² | - |
| 1777884175 | 1.11° C | 81% | 1005.2 hPa | 0 mm | - | 0 W/m² | - |
| 1777883871 | 1.11° C | 80% | 1005.3 hPa | 0 mm | - | 0 W/m² | - |
| 1777883568 | 1.67° C | 80% | 1005.2 hPa | 0 mm | - | 0 W/m² | - |
| 1777883264 | 1.67° C | 80% | 1005.2 hPa | 0 mm | - | 0 W/m² | - |
| 1777882960 | 1.11° C | 80% | 1005.4 hPa | 0 mm | - | 0 W/m² | - |
| 1777882657 | 1.11° C | 80% | 1005.2 hPa | 0 mm | - | 0 W/m² | - |
| 1777882353 | 1.11° C | 80% | 1005.1 hPa | 0 mm | - | 0 W/m² | - |
| 1777882050 | 1.11° C | 80% | 1005.3 hPa | 0 mm | - | 0 W/m² | - |
* Rain latest hour (hover to see other rain measurements)
** Current wind speed in m/s (hover to see current wind gust speed)